sensor_id;sensor_type;location;lat;lon;timestamp;pressure;altitude;pressure_sealevel;temperature;humidity
5574;BME280;2563;52.242;7.956;2023-04-25T00:01:11;98734.06;;;6.59;100.00
5574;BME280;2563;52.242;7.956;2023-04-25T00:03:38;98725.56;;;6.59;100.00
5574;BME280;2563;52.242;7.956;2023-04-25T00:06:04;98728.97;;;6.58;100.00
5574;BME280;2563;52.242;7.956;2023-04-25T00:08:30;98723.81;;;6.59;100.00
5574;BME280;2563;52.242;7.956;2023-04-25T00:10:56;98728.16;;;6.57;100.00
5574;BME280;2563;52.242;7.956;2023-04-25T00:13:22;98734.97;;;6.58;100.00
5574;BME280;2563;52.242;7.956;2023-04-25T00:15:47;98723.88;;;6.58;100.00
5574;BME280;2563;52.242;7.956;2023-04-25T00:18:14;98727.47;;;6.54;100.00
5574;BME280;2563;52.242;7.956;2023-04-25T00:20:39;98731.63;;;6.56;100.00
5574;BME280;2563;52.242;7.956;2023-04-25T00:23:04;98728.28;;;6.54;100.00
5574;BME280;2563;52.242;7.956;2023-04-25T00:25:30;98730.97;;;6.51;100.00
5574;BME280;2563;52.242;7.956;2023-04-25T00:27:55;98730.97;;;6.51;100.00
5574;BME280;2563;52.242;7.956;2023-04-25T00:30:21;98737.72;;;6.52;100.00
5574;BME280;2563;52.242;7.956;2023-04-25T00:32:46;98732.72;;;6.49;100.00
5574;BME280;2563;52.242;7.956;2023-04-25T00:35:11;98734.38;;;6.50;100.00
5574;BME280;2563;52.242;7.956;2023-04-25T00:37:37;98733.50;;;6.51;100.00
5574;BME280;2563;52.242;7.956;2023-04-25T00:40:05;98736.13;;;6.50;100.00
5574;BME280;2563;52.242;7.956;2023-04-25T00:42:31;98738.72;;;6.48;100.00
5574;BME280;2563;52.242;7.956;2023-04-25T00:44:58;98746.38;;;6.48;100.00
5574;BME280;2563;52.242;7.956;2023-04-25T00:47:25;98752.28;;;6.50;100.00
5574;BME280;2563;52.242;7.956;2023-04-25T00:49:50;98758.22;;;6.51;100.00
5574;BME280;2563;52.242;7.956;2023-04-25T00:52:16;98753.84;;;6.54;100.00
5574;BME280;2563;52.242;7.956;2023-04-25T00:54:42;98748.94;;;6.48;100.00
5574;BME280;2563;52.242;7.956;2023-04-25T00:57:07;98757.44;;;6.49;100.00
5574;BME280;2563;52.242;7.956;2023-04-25T00:59:33;98754.00;;;6.50;100.00
5574;BME280;2563;52.242;7.956;2023-04-25T01:01:58;98758.22;;;6.51;100.00
5574;BME280;2563;52.242;7.956;2023-04-25T01:04:25;98753.97;;;6.51;100.00
5574;BME280;2563;52.242;7.956;2023-04-25T01:06:52;98758.16;;;6.52;100.00
5574;BME280;2563;52.242;7.956;2023-04-25T01:09:17;98759.63;;;6.59;100.00
5574;BME280;2563;52.242;7.956;2023-04-25T01:11:44;98757.84;;;6.62;100.00
5574;BME280;2563;52.242;7.956;2023-04-25T01:14:10;98756.94;;;6.63;100.00
5574;BME280;2563;52.242;7.956;2023-04-25T01:16:35;98763.94;;;6.57;100.00
5574;BME280;2563;52.242;7.956;2023-04-25T01:19:01;98760.50;;;6.58;100.00
5574;BME280;2563;52.242;7.956;2023-04-25T01:21:29;98761.34;;;6.59;100.00
5574;BME280;2563;52.242;7.956;2023-04-25T01:23:56;98768.28;;;6.55;100.00
5574;BME280;2563;52.242;7.956;2023-04-25T01:26:22;98769.06;;;6.57;100.00
5574;BME280;2563;52.242;7.956;2023-04-25T01:28:48;98770.78;;;6.57;100.00
5574;BME280;2563;52.242;7.956;2023-04-25T01:31:14;98770.91;;;6.54;100.00
5574;BME280;2563;52.242;7.956;2023-04-25T01:33:40;98768.34;;;6.54;100.00
5574;BME280;2563;52.242;7.956;2023-04-25T01:36:05;98774.41;;;6.51;100.00
5574;BME280;2563;52.242;7.956;2023-04-25T01:38:31;98774.50;;;6.48;100.00
5574;BME280;2563;52.242;7.956;2023-04-25T01:40:57;98779.59;;;6.48;100.00
5574;BME280;2563;52.242;7.956;2023-04-25T01:43:22;98784.63;;;6.51;100.00
5574;BME280;2563;52.242;7.956;2023-04-25T01:45:49;98783.19;;;6.44;100.00
5574;BME280;2563;52.242;7.956;2023-04-25T01:48:15;98788.28;;;6.44;100.00
5574;BME280;2563;52.242;7.956;2023-04-25T01:50:41;98790.06;;;6.42;100.00
5574;BME280;2563;52.242;7.956;2023-04-25T01:53:06;98795.19;;;6.42;100.00
5574;BME280;2563;52.242;7.956;2023-04-25T01:55:33;98791.06;;;6.38;100.00
5574;BME280;2563;52.242;7.956;2023-04-25T01:58:00;98794.56;;;6.35;100.00
5574;BME280;2563;52.242;7.956;2023-04-25T02:00:26;98798.06;;;6.33;100.00
5574;BME280;2563;52.242;7.956;2023-04-25T02:02:51;98804.88;;;6.32;100.00
5574;BME280;2563;52.242;7.956;2023-04-25T02:05:18;98808.59;;;6.24;100.00
5574;BME280;2563;52.242;7.956;2023-04-25T02:07:44;98801.09;;;6.19;100.00
5574;BME280;2563;52.242;7.956;2023-04-25T02:10:09;98793.56;;;6.14;100.00
5574;BME280;2563;52.242;7.956;2023-04-25T02:12:35;98790.38;;;6.08;100.00
5574;BME280;2563;52.242;7.956;2023-04-25T02:15:01;98794.56;;;6.10;100.00
5574;BME280;2563;52.242;7.956;2023-04-25T02:17:26;98796.34;;;6.08;100.00
5574;BME280;2563;52.242;7.956;2023-04-25T02:19:52;98797.97;;;6.11;100.00
5574;BME280;2563;52.242;7.956;2023-04-25T02:22:17;98794.66;;;6.07;100.00
5574;BME280;2563;52.242;7.956;2023-04-25T02:24:42;98790.50;;;6.05;100.00
5574;BME280;2563;52.242;7.956;2023-04-25T02:27:08;98790.47;;;6.06;100.00
5574;BME280;2563;52.242;7.956;2023-04-25T02:29:33;98797.19;;;6.09;100.00
5574;BME280;2563;52.242;7.956;2023-04-25T02:31:59;98799.22;;;5.99;100.00
5574;BME280;2563;52.242;7.956;2023-04-25T02:34:24;98804.25;;;6.01;100.00
5574;BME280;2563;52.242;7.956;2023-04-25T02:36:49;98806.97;;;5.96;100.00
5574;BME280;2563;52.242;7.956;2023-04-25T02:39:16;98802.84;;;5.92;100.00
5574;BME280;2563;52.242;7.956;2023-04-25T02:41:41;98804.75;;;5.85;100.00
5574;BME280;2563;52.242;7.956;2023-04-25T02:44:07;98812.38;;;5.87;100.00
5574;BME280;2563;52.242;7.956;2023-04-25T02:46:32;98810.78;;;5.83;100.00
5574;BME280;2563;52.242;7.956;2023-04-25T02:48:58;98809.09;;;5.82;100.00
5574;BME280;2563;52.242;7.956;2023-04-25T02:51:23;98801.78;;;5.72;100.00
5574;BME280;2563;52.242;7.956;2023-04-25T02:53:48;98804.22;;;5.75;100.00
5574;BME280;2563;52.242;7.956;2023-04-25T02:56:13;98808.50;;;5.75;100.00
5574;BME280;2563;52.242;7.956;2023-04-25T02:58:39;98810.16;;;5.76;100.00
5574;BME280;2563;52.242;7.956;2023-04-25T03:01:04;98806.97;;;5.69;100.00
5574;BME280;2563;52.242;7.956;2023-04-25T03:03:30;98807.06;;;5.66;100.00
5574;BME280;2563;52.242;7.956;2023-04-25T03:05:55;98807.97;;;5.65;100.00
5574;BME280;2563;52.242;7.956;2023-04-25T03:08:21;98816.44;;;5.66;100.00
5574;BME280;2563;52.242;7.956;2023-04-25T03:10:46;98813.81;;;5.67;100.00
5574;BME280;2563;52.242;7.956;2023-04-25T03:13:11;98815.63;;;5.65;100.00
5574;BME280;2563;52.242;7.956;2023-04-25T03:15:37;98814.72;;;5.66;100.00
5574;BME280;2563;52.242;7.956;2023-04-25T03:18:03;98811.28;;;5.67;100.00
5574;BME280;2563;52.242;7.956;2023-04-25T03:20:28;98814.81;;;5.63;100.00
5574;BME280;2563;52.242;7.956;2023-04-25T03:22:54;98828.38;;;5.65;100.00
5574;BME280;2563;52.242;7.956;2023-04-25T03:25:19;98823.28;;;5.65;100.00
5574;BME280;2563;52.242;7.956;2023-04-25T03:27:44;98818.25;;;5.62;100.00
5574;BME280;2563;52.242;7.956;2023-04-25T03:30:10;98829.47;;;5.58;100.00
5574;BME280;2563;52.242;7.956;2023-04-25T03:32:36;98837.09;;;5.58;100.00
5574;BME280;2563;52.242;7.956;2023-04-25T03:35:01;98840.41;;;5.60;100.00
5574;BME280;2563;52.242;7.956;2023-04-25T03:37:27;98843.75;;;5.62;100.00
5574;BME280;2563;52.242;7.956;2023-04-25T03:39:52;98832.00;;;5.58;100.00
5574;BME280;2563;52.242;7.956;2023-04-25T03:42:17;98846.47;;;5.58;100.00
5574;BME280;2563;52.242;7.956;2023-04-25T03:44:43;98849.91;;;5.57;100.00
5574;BME280;2563;52.242;7.956;2023-04-25T03:47:08;98854.91;;;5.60;100.00
5574;BME280;2563;52.242;7.956;2023-04-25T03:49:34;98860.84;;;5.60;100.00
5574;BME280;2563;52.242;7.956;2023-04-25T03:52:00;98859.28;;;5.56;100.00
5574;BME280;2563;52.242;7.956;2023-04-25T03:54:26;98868.56;;;5.59;100.00
5574;BME280;2563;52.242;7.956;2023-04-25T03:56:51;98866.16;;;5.54;100.00
5574;BME280;2563;52.242;7.956;2023-04-25T03:59:16;98865.34;;;5.52;100.00
5574;BME280;2563;52.242;7.956;2023-04-25T04:01:42;98871.44;;;5.48;100.00
5574;BME280;2563;52.242;7.956;2023-04-25T04:04:07;98873.19;;;5.46;100.00
5574;BME280;2563;52.242;7.956;2023-04-25T04:06:32;98868.19;;;5.43;100.00
5574;BME280;2563;52.242;7.956;2023-04-25T04:08:59;98869.88;;;5.44;100.00
5574;BME280;2563;52.242;7.956;2023-04-25T04:11:24;98877.59;;;5.41;100.00
5574;BME280;2563;52.242;7.956;2023-04-25T04:13:50;98888.66;;;5.41;100.00
5574;BME280;2563;52.242;7.956;2023-04-25T04:16:15;98882.81;;;5.38;100.00
5574;BME280;2563;52.242;7.956;2023-04-25T04:18:40;98887.91;;;5.38;100.00
5574;BME280;2563;52.242;7.956;2023-04-25T04:21:06;98886.25;;;5.37;100.00
5574;BME280;2563;52.242;7.956;2023-04-25T04:23:31;98885.38;;;5.36;100.00
5574;BME280;2563;52.242;7.956;2023-04-25T04:25:56;98882.00;;;5.36;100.00
5574;BME280;2563;52.242;7.956;2023-04-25T04:28:22;98885.34;;;5.38;100.00
5574;BME280;2563;52.242;7.956;2023-04-25T04:30:47;98889.63;;;5.37;100.00
5574;BME280;2563;52.242;7.956;2023-04-25T04:33:13;98901.56;;;5.37;100.00
5574;BME280;2563;52.242;7.956;2023-04-25T04:35:40;98907.41;;;5.39;100.00
5574;BME280;2563;52.242;7.956;2023-04-25T04:38:07;98904.00;;;5.40;100.00
5574;BME280;2563;52.242;7.956;2023-04-25T04:40:32;98904.00;;;5.40;100.00
5574;BME280;2563;52.242;7.956;2023-04-25T04:42:57;98899.75;;;5.39;100.00
5574;BME280;2563;52.242;7.956;2023-04-25T04:45:23;98903.91;;;5.43;100.00
5574;BME280;2563;52.242;7.956;2023-04-25T04:47:49;98900.56;;;5.41;100.00
5574;BME280;2563;52.242;7.956;2023-04-25T04:50:15;98901.44;;;5.40;100.00
5574;BME280;2563;52.242;7.956;2023-04-25T04:52:41;98907.34;;;5.42;100.00
5574;BME280;2563;52.242;7.956;2023-04-25T04:55:07;98909.13;;;5.38;100.00
5574;BME280;2563;52.242;7.956;2023-04-25T04:57:33;98926.06;;;5.41;100.00
5574;BME280;2563;52.242;7.956;2023-04-25T04:59:59;98915.88;;;5.41;100.00
5574;BME280;2563;52.242;7.956;2023-04-25T05:02:25;98920.16;;;5.39;100.00
5574;BME280;2563;52.242;7.956;2023-04-25T05:04:51;98915.88;;;5.41;100.00
5574;BME280;2563;52.242;7.956;2023-04-25T05:07:17;98928.41;;;5.48;100.00
5574;BME280;2563;52.242;7.956;2023-04-25T05:09:42;98928.50;;;5.45;100.00
5574;BME280;2563;52.242;7.956;2023-04-25T05:12:08;98940.38;;;5.46;100.00
5574;BME280;2563;52.242;7.956;2023-04-25T05:14:33;98930.25;;;5.43;100.00
5574;BME280;2563;52.242;7.956;2023-04-25T05:16:58;98939.63;;;5.43;100.00
5574;BME280;2563;52.242;7.956;2023-04-25T05:19:24;98946.34;;;5.45;100.00
5574;BME280;2563;52.242;7.956;2023-04-25T05:21:50;98938.63;;;5.48;100.00
5574;BME280;2563;52.242;7.956;2023-04-25T05:24:15;98944.47;;;5.52;100.00
5574;BME280;2563;52.242;7.956;2023-04-25T05:26:41;98936.81;;;5.52;100.00
5574;BME280;2563;52.242;7.956;2023-04-25T05:29:06;98945.84;;;5.62;100.00
5574;BME280;2563;52.242;7.956;2023-04-25T05:31:32;98940.75;;;5.62;100.00
5574;BME280;2563;52.242;7.956;2023-04-25T05:33:57;98947.41;;;5.68;100.00
5574;BME280;2563;52.242;7.956;2023-04-25T05:36:23;98948.91;;;5.73;100.00
5574;BME280;2563;52.242;7.956;2023-04-25T05:38:48;98952.06;;;5.82;100.00
5574;BME280;2563;52.242;7.956;2023-04-25T05:41:13;98941.78;;;5.85;100.00
5574;BME280;2563;52.242;7.956;2023-04-25T05:43:39;98944.22;;;5.88;100.00
5574;BME280;2563;52.242;7.956;2023-04-25T05:46:10;98948.53;;;5.86;100.00
5574;BME280;2563;52.242;7.956;2023-04-25T05:48:35;98946.53;;;5.97;100.00
5574;BME280;2563;52.242;7.956;2023-04-25T05:51:01;98941.53;;;5.94;100.00
5574;BME280;2563;52.242;7.956;2023-04-25T05:53:26;98948.94;;;6.02;100.00
5574;BME280;2563;52.242;7.956;2023-04-25T05:55:51;98936.34;;;5.95;100.00
5574;BME280;2563;52.242;7.956;2023-04-25T05:58:17;98955.63;;;6.06;100.00
5574;BME280;2563;52.242;7.956;2023-04-25T06:00:42;98949.38;;;6.14;100.00
5574;BME280;2563;52.242;7.956;2023-04-25T06:03:07;98945.03;;;6.18;100.00
5574;BME280;2563;52.242;7.956;2023-04-25T06:05:35;98940.63;;;6.22;100.00
5574;BME280;2563;52.242;7.956;2023-04-25T06:08:00;98951.53;;;6.27;100.00
5574;BME280;2563;52.242;7.956;2023-04-25T06:10:26;98938.56;;;6.33;100.00
5574;BME280;2563;52.242;7.956;2023-04-25T06:12:51;98945.00;;;6.45;100.00
5574;BME280;2563;52.242;7.956;2023-04-25T06:15:17;98924.22;;;6.29;100.00
5574;BME280;2563;52.242;7.956;2023-04-25T06:17:42;98943.56;;;6.36;100.00
5574;BME280;2563;52.242;7.956;2023-04-25T06:20:08;98939.66;;;6.51;100.00
5574;BME280;2563;52.242;7.956;2023-04-25T06:22:34;98937.63;;;6.60;100.00
5574;BME280;2563;52.242;7.956;2023-04-25T06:24:59;98934.41;;;6.55;100.00
5574;BME280;2563;52.242;7.956;2023-04-25T06:27:25;98911.66;;;6.48;100.00
5574;BME280;2563;52.242;7.956;2023-04-25T06:29:50;98917.03;;;6.40;100.00
5574;BME280;2563;52.242;7.956;2023-04-25T06:32:16;98947.84;;;6.60;100.00
5574;BME280;2563;52.242;7.956;2023-04-25T06:34:43;98932.53;;;6.60;100.00
5574;BME280;2563;52.242;7.956;2023-04-25T06:37:08;98945.06;;;6.68;100.00
5574;BME280;2563;52.242;7.956;2023-04-25T06:39:33;98927.53;;;6.57;100.00
5574;BME280;2563;52.242;7.956;2023-04-25T06:41:59;98942.06;;;6.55;100.00
5574;BME280;2563;52.242;7.956;2023-04-25T06:44:24;98945.47;;;6.56;100.00
5574;BME280;2563;52.242;7.956;2023-04-25T06:46:51;98968.91;;;6.69;100.00
5574;BME280;2563;52.242;7.956;2023-04-25T06:49:16;98977.06;;;7.03;100.00
5574;BME280;2563;52.242;7.956;2023-04-25T06:51:42;98975.44;;;7.01;100.00
5574;BME280;2563;52.242;7.956;2023-04-25T06:54:07;98973.53;;;7.08;100.00
5574;BME280;2563;52.242;7.956;2023-04-25T06:56:32;98994.19;;;7.27;100.00
5574;BME280;2563;52.242;7.956;2023-04-25T06:58:58;98982.78;;;7.35;100.00
5574;BME280;2563;52.242;7.956;2023-04-25T07:01:25;99004.47;;;7.49;100.00
5574;BME280;2563;52.242;7.956;2023-04-25T07:03:50;99010.03;;;7.60;100.00
5574;BME280;2563;52.242;7.956;2023-04-25T07:06:16;99017.84;;;7.57;100.00
5574;BME280;2563;52.242;7.956;2023-04-25T07:08:41;99056.78;;;7.65;100.00
5574;BME280;2563;52.242;7.956;2023-04-25T07:11:06;99072.19;;;7.87;100.00
5574;BME280;2563;52.242;7.956;2023-04-25T07:13:32;99067.06;;;7.87;100.00
5574;BME280;2563;52.242;7.956;2023-04-25T07:15:57;99074.38;;;7.74;100.00
5574;BME280;2563;52.242;7.956;2023-04-25T07:18:23;99133.47;;;7.68;100.00
5574;BME280;2563;52.242;7.956;2023-04-25T07:20:48;99135.25;;;7.66;100.00
5574;BME280;2563;52.242;7.956;2023-04-25T07:23:13;99187.78;;;7.53;100.00
5574;BME280;2563;52.242;7.956;2023-04-25T07:25:39;99242.28;;;7.56;100.00
5574;BME280;2563;52.242;7.956;2023-04-25T07:28:04;99280.19;;;7.72;100.00
5574;BME280;2563;52.242;7.956;2023-04-25T07:30:30;99281.44;;;7.60;100.00
5574;BME280;2563;52.242;7.956;2023-04-25T07:32:56;99325.81;;;7.60;100.00
5574;BME280;2563;52.242;7.956;2023-04-25T07:35:21;99375.97;;;7.66;100.00
5574;BME280;2563;52.242;7.956;2023-04-25T07:37:46;99420.66;;;8.12;100.00
5574;BME280;2563;52.242;7.956;2023-04-25T07:40:12;99415.59;;;8.09;100.00
5574;BME280;2563;52.242;7.956;2023-04-25T07:42:37;99460.56;;;8.19;100.00
5574;BME280;2563;52.242;7.956;2023-04-25T07:45:03;99468.94;;;7.98;100.00
5574;BME280;2563;52.242;7.956;2023-04-25T07:47:28;99483.75;;;7.88;100.00
5574;BME280;2563;52.242;7.956;2023-04-25T07:49:54;99555.78;;;8.07;100.00
5574;BME280;2563;52.242;7.956;2023-04-25T07:52:19;99571.72;;;8.45;100.00
5574;BME280;2563;52.242;7.956;2023-04-25T07:54:45;99576.81;;;8.46;100.00
5574;BME280;2563;52.242;7.956;2023-04-25T07:57:10;99598.84;;;8.52;100.00
5574;BME280;2563;52.242;7.956;2023-04-25T07:59:35;99630.06;;;8.37;100.00
5574;BME280;2563;52.242;7.956;2023-04-25T08:02:01;99642.91;;;8.35;100.00
5574;BME280;2563;52.242;7.956;2023-04-25T08:04:27;99714.16;;;9.11;100.00
5574;BME280;2563;52.242;7.956;2023-04-25T08:06:53;99734.94;;;9.57;100.00
5574;BME280;2563;52.242;7.956;2023-04-25T08:09:19;99737.75;;;10.50;100.00
5574;BME280;2563;52.242;7.956;2023-04-25T08:11:45;99697.59;;;10.46;100.00
5574;BME280;2563;52.242;7.956;2023-04-25T08:14:11;99738.00;;;9.68;100.00
5574;BME280;2563;52.242;7.956;2023-04-25T08:16:36;99872.06;;;10.08;100.00
5574;BME280;2563;52.242;7.956;2023-04-25T08:19:02;99806.16;;;10.79;100.00
5574;BME280;2563;52.242;7.956;2023-04-25T08:21:27;99904.16;;;10.98;100.00
5574;BME280;2563;52.242;7.956;2023-04-25T08:23:53;99925.69;;;11.42;100.00
5574;BME280;2563;52.242;7.956;2023-04-25T08:26:18;99983.06;;;11.47;100.00
5574;BME280;2563;52.242;7.956;2023-04-25T08:28:43;99994.47;;;11.40;100.00
5574;BME280;2563;52.242;7.956;2023-04-25T08:31:09;100020.41;;;11.59;100.00
5574;BME280;2563;52.242;7.956;2023-04-25T08:33:35;99947.34;;;10.39;100.00
5574;BME280;2563;52.242;7.956;2023-04-25T08:36:00;100054.81;;;10.01;100.00
5574;BME280;2563;52.242;7.956;2023-04-25T08:38:26;100155.41;;;11.05;100.00
5574;BME280;2563;52.242;7.956;2023-04-25T08:40:51;100050.44;;;10.33;100.00
5574;BME280;2563;52.242;7.956;2023-04-25T08:43:18;100062.03;;;9.59;100.00
5574;BME280;2563;52.242;7.956;2023-04-25T08:45:44;100138.00;;;9.36;100.00
5574;BME280;2563;52.242;7.956;2023-04-25T08:48:12;100205.59;;;9.71;100.00
5574;BME280;2563;52.242;7.956;2023-04-25T08:50:56;100171.66;;;9.91;100.00
5574;BME280;2563;52.242;7.956;2023-04-25T08:53:27;100132.78;;;9.40;100.00
5574;BME280;2563;52.242;7.956;2023-04-25T08:55:57;100118.50;;;9.29;100.00
5574;BME280;2563;52.242;7.956;2023-04-25T08:58:23;100090.25;;;8.59;100.00
5574;BME280;2563;52.242;7.956;2023-04-25T09:00:49;100112.13;;;8.37;100.00
5574;BME280;2563;52.242;7.956;2023-04-25T09:03:15;100160.19;;;8.28;100.00
5574;BME280;2563;52.242;7.956;2023-04-25T09:05:41;100139.13;;;8.13;100.00
5574;BME280;2563;52.242;7.956;2023-04-25T09:08:07;100138.66;;;7.94;100.00
5574;BME280;2563;52.242;7.956;2023-04-25T09:10:34;100156.66;;;7.91;100.00
5574;BME280;2563;52.242;7.956;2023-04-25T09:13:26;100179.75;;;7.89;100.00
5574;BME280;2563;52.242;7.956;2023-04-25T09:15:57;100147.41;;;7.83;100.00
5574;BME280;2563;52.242;7.956;2023-04-25T09:20:48;100264.41;;;8.29;100.00
5574;BME280;2563;52.242;7.956;2023-04-25T09:23:14;100287.28;;;8.43;100.00
5574;BME280;2563;52.242;7.956;2023-04-25T09:25:40;100300.50;;;8.65;100.00
5574;BME280;2563;52.242;7.956;2023-04-25T09:28:06;100231.56;;;8.50;100.00
5574;BME280;2563;52.242;7.956;2023-04-25T09:30:34;100339.00;;;8.65;100.00
5574;BME280;2563;52.242;7.956;2023-04-25T09:33:10;100413.69;;;10.79;100.00
5574;BME280;2563;52.242;7.956;2023-04-25T09:35:37;100339.38;;;11.81;100.00
5574;BME280;2563;52.242;7.956;2023-04-25T09:38:10;100291.78;;;12.40;100.00
5574;BME280;2563;52.242;7.956;2023-04-25T09:40:43;100158.34;;;11.71;100.00
5574;BME280;2563;52.242;7.956;2023-04-25T09:43:22;100235.75;;;11.69;100.00
5574;BME280;2563;52.242;7.956;2023-04-25T09:45:49;100289.88;;;11.69;100.00
5574;BME280;2563;52.242;7.956;2023-04-25T09:48:20;100263.25;;;11.69;100.00
5574;BME280;2563;52.242;7.956;2023-04-25T09:51:13;100280.34;;;11.98;100.00
5574;BME280;2563;52.242;7.956;2023-04-25T09:53:43;100216.56;;;11.25;100.00
5574;BME280;2563;52.242;7.956;2023-04-25T09:56:10;100199.72;;;10.60;100.00
5574;BME280;2563;52.242;7.956;2023-04-25T09:58:41;100190.28;;;9.99;100.00
5574;BME280;2563;52.242;7.956;2023-04-25T10:01:08;100233.94;;;9.70;100.00
5574;BME280;2563;52.242;7.956;2023-04-25T10:03:35;100255.25;;;9.72;100.00
5574;BME280;2563;52.242;7.956;2023-04-25T10:06:03;100341.47;;;9.85;100.00
5574;BME280;2563;52.242;7.956;2023-04-25T10:08:34;100329.44;;;9.87;100.00
5574;BME280;2563;52.242;7.956;2023-04-25T10:11:01;100217.53;;;9.41;100.00
5574;BME280;2563;52.242;7.956;2023-04-25T10:13:29;100246.84;;;9.31;100.00
5574;BME280;2563;52.242;7.956;2023-04-25T10:15:55;100562.03;;;11.17;100.00
5574;BME280;2563;52.242;7.956;2023-04-25T10:23:26;100257.75;;;12.75;100.00
5574;BME280;2563;52.242;7.956;2023-04-25T10:25:55;100229.66;;;11.70;100.00
5574;BME280;2563;52.242;7.956;2023-04-25T10:28:21;100225.09;;;10.72;100.00
5574;BME280;2563;52.242;7.956;2023-04-25T10:33:32;100301.19;;;10.20;100.00
5574;BME280;2563;52.242;7.956;2023-04-25T10:36:18;100202.78;;;9.48;100.00
5574;BME280;2563;52.242;7.956;2023-04-25T10:38:44;100323.34;;;9.55;100.00
5574;BME280;2563;52.242;7.956;2023-04-25T10:41:11;100365.88;;;9.67;100.00
5574;BME280;2563;52.242;7.956;2023-04-25T10:43:42;100335.94;;;9.66;100.00
5574;BME280;2563;52.242;7.956;2023-04-25T10:46:25;100242.00;;;9.19;100.00
5574;BME280;2563;52.242;7.956;2023-04-25T10:48:53;100366.63;;;9.35;100.00
5574;BME280;2563;52.242;7.956;2023-04-25T10:51:29;100290.88;;;9.15;100.00
5574;BME280;2563;52.242;7.956;2023-04-25T10:53:58;100378.75;;;9.28;100.00
5574;BME280;2563;52.242;7.956;2023-04-25T10:59:03;100432.66;;;9.30;100.00
5574;BME280;2563;52.242;7.956;2023-04-25T11:01:36;100365.25;;;9.19;100.00
5574;BME280;2563;52.242;7.956;2023-04-25T11:04:01;100328.00;;;9.01;100.00
5574;BME280;2563;52.242;7.956;2023-04-25T11:09:12;100449.81;;;9.70;100.00
5574;BME280;2563;52.242;7.956;2023-04-25T11:11:41;100553.53;;;10.06;100.00
5574;BME280;2563;52.242;7.956;2023-04-25T11:14:06;100350.22;;;9.78;100.00
5574;BME280;2563;52.242;7.956;2023-04-25T11:16:32;100439.69;;;9.99;100.00
5574;BME280;2563;52.242;7.956;2023-04-25T11:18:58;100486.28;;;10.23;100.00
5574;BME280;2563;52.242;7.956;2023-04-25T11:21:25;100336.59;;;9.74;100.00
5574;BME280;2563;52.242;7.956;2023-04-25T11:23:51;100325.00;;;9.58;100.00
5574;BME280;2563;52.242;7.956;2023-04-25T11:26:19;100318.28;;;9.52;100.00
5574;BME280;2563;52.242;7.956;2023-04-25T11:28:45;100363.56;;;9.56;100.00
5574;BME280;2563;52.242;7.956;2023-04-25T11:31:11;100350.94;;;9.47;100.00
5574;BME280;2563;52.242;7.956;2023-04-25T11:33:36;100476.84;;;9.86;100.00
5574;BME280;2563;52.242;7.956;2023-04-25T11:36:02;100516.97;;;10.32;100.00
5574;BME280;2563;52.242;7.956;2023-04-25T11:38:27;100432.50;;;10.12;100.00
5574;BME280;2563;52.242;7.956;2023-04-25T11:40:53;100653.84;;;11.85;100.00
5574;BME280;2563;52.242;7.956;2023-04-25T11:43:22;100390.13;;;12.32;100.00
5574;BME280;2563;52.242;7.956;2023-04-25T11:45:48;100437.63;;;12.53;100.00
5574;BME280;2563;52.242;7.956;2023-04-25T11:48:14;100464.97;;;14.00;100.00
5574;BME280;2563;52.242;7.956;2023-04-25T11:50:40;100310.44;;;13.61;100.00
5574;BME280;2563;52.242;7.956;2023-04-25T11:53:05;100324.66;;;13.51;100.00
5574;BME280;2563;52.242;7.956;2023-04-25T11:55:31;100332.66;;;13.21;100.00
5574;BME280;2563;52.242;7.956;2023-04-25T11:57:59;100295.47;;;13.25;100.00
5574;BME280;2563;52.242;7.956;2023-04-25T12:00:25;100248.47;;;12.24;100.00
5574;BME280;2563;52.242;7.956;2023-04-25T12:02:56;100192.06;;;11.13;100.00
5574;BME280;2563;52.242;7.956;2023-04-25T12:05:30;100151.00;;;9.94;100.00
5574;BME280;2563;52.242;7.956;2023-04-25T12:07:56;100208.28;;;8.97;100.00
5574;BME280;2563;52.242;7.956;2023-04-25T12:10:24;100197.00;;;8.24;100.00
5574;BME280;2563;52.242;7.956;2023-04-25T12:12:50;100122.63;;;7.39;100.00
5574;BME280;2563;52.242;7.956;2023-04-25T12:15:18;100257.00;;;7.15;100.00
5574;BME280;2563;52.242;7.956;2023-04-25T12:17:47;100273.53;;;6.92;100.00
5574;BME280;2563;52.242;7.956;2023-04-25T12:20:15;100419.06;;;7.15;100.00
5574;BME280;2563;52.242;7.956;2023-04-25T12:22:45;100355.50;;;6.81;100.00
5574;BME280;2563;52.242;7.956;2023-04-25T12:25:34;100474.63;;;7.06;100.00
5574;BME280;2563;52.242;7.956;2023-04-25T12:31:06;100582.72;;;8.05;100.00
5574;BME280;2563;52.242;7.956;2023-04-25T12:33:36;100539.69;;;8.25;100.00
5574;BME280;2563;52.242;7.956;2023-04-25T12:36:03;100561.72;;;8.42;100.00
5574;BME280;2563;52.242;7.956;2023-04-25T12:38:36;100494.78;;;8.57;100.00
5574;BME280;2563;52.242;7.956;2023-04-25T12:41:02;100452.56;;;8.73;100.00
5574;BME280;2563;52.242;7.956;2023-04-25T12:43:27;100672.00;;;10.40;100.00
5574;BME280;2563;52.242;7.956;2023-04-25T12:45:56;100547.88;;;11.63;100.00
5574;BME280;2563;52.242;7.956;2023-04-25T12:48:22;100422.28;;;11.68;100.00
5574;BME280;2563;52.242;7.956;2023-04-25T12:50:49;100434.16;;;11.73;100.00
5574;BME280;2563;52.242;7.956;2023-04-25T12:53:15;100559.63;;;12.03;100.00
5574;BME280;2563;52.242;7.956;2023-04-25T12:55:41;100596.75;;;12.82;100.00
5574;BME280;2563;52.242;7.956;2023-04-25T12:58:16;100499.81;;;12.97;100.00
5574;BME280;2563;52.242;7.956;2023-04-25T13:00:45;100474.44;;;12.83;100.00
5574;BME280;2563;52.242;7.956;2023-04-25T13:03:15;100448.97;;;12.47;100.00
5574;BME280;2563;52.242;7.956;2023-04-25T13:05:41;100285.72;;;11.39;100.00
5574;BME280;2563;52.242;7.956;2023-04-25T13:08:07;100487.91;;;11.27;100.00
5574;BME280;2563;52.242;7.956;2023-04-25T13:10:33;100586.41;;;11.99;100.00
5574;BME280;2563;52.242;7.956;2023-04-25T13:12:59;100499.66;;;11.67;100.00
5574;BME280;2563;52.242;7.956;2023-04-25T13:15:24;100426.47;;;11.43;100.00
5574;BME280;2563;52.242;7.956;2023-04-25T13:17:50;100496.38;;;11.91;100.00
5574;BME280;2563;52.242;7.956;2023-04-25T13:20:15;100477.91;;;11.76;100.00
5574;BME280;2563;52.242;7.956;2023-04-25T13:22:42;100454.09;;;11.67;100.00
5574;BME280;2563;52.242;7.956;2023-04-25T13:25:08;100526.91;;;12.05;100.00
5574;BME280;2563;52.242;7.956;2023-04-25T13:27:34;100377.44;;;11.44;100.00
5574;BME280;2563;52.242;7.956;2023-04-25T13:30:01;100286.44;;;10.88;100.00